Terminal Aerodrome Forecast
Issued by NWS Tuscon, AZ

Home | Current Version | Previous Version | Text Only | Print | Product List | Glossary On
Versions: 1 2 3 4 5 6 7 8 9 10 11 12 13 14
000
FTUS45 KTWC 241720
TAFDUG
TAF
KDUG 241720Z 2418/2518 14007KT P6SM FEW100 SCT180
     FM242100 04010KT P6SM VCSH SCT080 BKN150
     FM250200 12012KT P6SM SCT100 OVC150
     FM251600 13005KT P6SM SCT100 BKN150=

USA.gov is the U.S. government's official web portal to all federal, state and local government web resources and services.